sensor_id;sensor_type;location;lat;lon;timestamp;temperature;humidity
66568;DHT22;53422;49.296;6.900;2023-10-13T00:00:27;15.80;99.90
66568;DHT22;53422;49.296;6.900;2023-10-13T00:02:58;15.80;99.90
66568;DHT22;53422;49.296;6.900;2023-10-13T00:05:31;15.80;99.90
66568;DHT22;53422;49.296;6.900;2023-10-13T00:08:01;15.90;99.90
66568;DHT22;53422;49.296;6.900;2023-10-13T00:10:30;15.90;99.90
66568;DHT22;53422;49.296;6.900;2023-10-13T00:12:57;15.90;99.90
66568;DHT22;53422;49.296;6.900;2023-10-13T00:15:39;16.00;99.90
66568;DHT22;53422;49.296;6.900;2023-10-13T00:18:10;16.00;99.90
66568;DHT22;53422;49.296;6.900;2023-10-13T00:20:44;15.90;99.90
66568;DHT22;53422;49.296;6.900;2023-10-13T00:23:16;16.00;99.90
66568;DHT22;53422;49.296;6.900;2023-10-13T00:25:49;15.90;99.90
66568;DHT22;53422;49.296;6.900;2023-10-13T00:28:26;15.90;99.90
66568;DHT22;53422;49.296;6.900;2023-10-13T00:31:00;15.90;99.90
66568;DHT22;53422;49.296;6.900;2023-10-13T00:33:30;15.90;99.90
66568;DHT22;53422;49.296;6.900;2023-10-13T00:35:57;15.90;99.90
66568;DHT22;53422;49.296;6.900;2023-10-13T00:38:26;15.80;99.90
66568;DHT22;53422;49.296;6.900;2023-10-13T00:40:52;15.80;99.90
66568;DHT22;53422;49.296;6.900;2023-10-13T00:43:20;15.90;99.90
66568;DHT22;53422;49.296;6.900;2023-10-13T00:45:52;15.90;99.90
66568;DHT22;53422;49.296;6.900;2023-10-13T00:48:27;15.90;99.90
66568;DHT22;53422;49.296;6.900;2023-10-13T00:51:04;15.90;99.90
66568;DHT22;53422;49.296;6.900;2023-10-13T00:53:34;15.80;99.90
66568;DHT22;53422;49.296;6.900;2023-10-13T00:56:03;15.80;99.90
66568;DHT22;53422;49.296;6.900;2023-10-13T00:58:36;15.80;99.90
66568;DHT22;53422;49.296;6.900;2023-10-13T01:01:08;15.70;99.90
66568;DHT22;53422;49.296;6.900;2023-10-13T01:03:50;15.70;99.90
66568;DHT22;53422;49.296;6.900;2023-10-13T01:06:21;15.70;99.90
66568;DHT22;53422;49.296;6.900;2023-10-13T01:08:57;15.70;99.90
66568;DHT22;53422;49.296;6.900;2023-10-13T01:11:23;15.60;99.90
66568;DHT22;53422;49.296;6.900;2023-10-13T01:13:49;15.60;99.90
66568;DHT22;53422;49.296;6.900;2023-10-13T01:16:20;15.60;99.90
66568;DHT22;53422;49.296;6.900;2023-10-13T01:18:52;15.60;99.90
66568;DHT22;53422;49.296;6.900;2023-10-13T01:21:18;15.60;99.90
66568;DHT22;53422;49.296;6.900;2023-10-13T01:23:52;15.60;99.90
66568;DHT22;53422;49.296;6.900;2023-10-13T01:26:18;15.60;99.90
66568;DHT22;53422;49.296;6.900;2023-10-13T01:28:50;15.60;99.90
66568;DHT22;53422;49.296;6.900;2023-10-13T01:31:17;15.60;99.90
66568;DHT22;53422;49.296;6.900;2023-10-13T01:33:53;15.60;99.90
66568;DHT22;53422;49.296;6.900;2023-10-13T01:36:27;15.60;99.90
66568;DHT22;53422;49.296;6.900;2023-10-13T01:38:53;15.60;99.90
66568;DHT22;53422;49.296;6.900;2023-10-13T01:41:20;15.60;99.90
66568;DHT22;53422;49.296;6.900;2023-10-13T01:43:46;15.60;99.90
66568;DHT22;53422;49.296;6.900;2023-10-13T01:46:16;15.60;99.90
66568;DHT22;53422;49.296;6.900;2023-10-13T01:48:45;15.60;99.90
66568;DHT22;53422;49.296;6.900;2023-10-13T01:51:15;15.60;99.90
66568;DHT22;53422;49.296;6.900;2023-10-13T01:53:40;15.60;99.90
66568;DHT22;53422;49.296;6.900;2023-10-13T01:56:07;15.60;99.90
66568;DHT22;53422;49.296;6.900;2023-10-13T01:58:38;15.70;99.90
66568;DHT22;53422;49.296;6.900;2023-10-13T02:01:07;15.70;99.90
66568;DHT22;53422;49.296;6.900;2023-10-13T02:03:35;15.60;99.90
66568;DHT22;53422;49.296;6.900;2023-10-13T02:06:07;15.60;99.90
66568;DHT22;53422;49.296;6.900;2023-10-13T02:08:36;15.60;99.90
66568;DHT22;53422;49.296;6.900;2023-10-13T02:11:08;15.60;99.90
66568;DHT22;53422;49.296;6.900;2023-10-13T02:13:35;15.60;99.90
66568;DHT22;53422;49.296;6.900;2023-10-13T02:16:07;15.60;99.90
66568;DHT22;53422;49.296;6.900;2023-10-13T02:18:32;15.70;99.90
66568;DHT22;53422;49.296;6.900;2023-10-13T02:21:09;15.70;99.90
66568;DHT22;53422;49.296;6.900;2023-10-13T02:23:40;15.60;99.90
66568;DHT22;53422;49.296;6.900;2023-10-13T02:26:34;15.60;99.90
66568;DHT22;53422;49.296;6.900;2023-10-13T02:29:04;15.60;99.90
66568;DHT22;53422;49.296;6.900;2023-10-13T02:31:35;15.60;99.90
66568;DHT22;53422;49.296;6.900;2023-10-13T02:34:02;15.60;99.90
66568;DHT22;53422;49.296;6.900;2023-10-13T02:36:36;15.60;99.90
66568;DHT22;53422;49.296;6.900;2023-10-13T02:39:03;15.60;99.90
66568;DHT22;53422;49.296;6.900;2023-10-13T02:41:33;15.60;99.90
66568;DHT22;53422;49.296;6.900;2023-10-13T02:44:03;15.60;99.90
66568;DHT22;53422;49.296;6.900;2023-10-13T02:46:32;15.50;99.90
66568;DHT22;53422;49.296;6.900;2023-10-13T02:49:02;15.50;99.90
66568;DHT22;53422;49.296;6.900;2023-10-13T02:51:36;15.50;99.90
66568;DHT22;53422;49.296;6.900;2023-10-13T02:54:02;15.50;99.90
66568;DHT22;53422;49.296;6.900;2023-10-13T02:56:29;15.50;99.90
66568;DHT22;53422;49.296;6.900;2023-10-13T02:58:55;15.50;99.90
66568;DHT22;53422;49.296;6.900;2023-10-13T03:01:33;15.50;99.90
66568;DHT22;53422;49.296;6.900;2023-10-13T03:04:09;15.50;99.90
66568;DHT22;53422;49.296;6.900;2023-10-13T03:06:35;15.50;99.90
66568;DHT22;53422;49.296;6.900;2023-10-13T03:09:04;15.50;99.90
66568;DHT22;53422;49.296;6.900;2023-10-13T03:11:44;15.50;99.90
66568;DHT22;53422;49.296;6.900;2023-10-13T03:14:16;15.50;99.90
66568;DHT22;53422;49.296;6.900;2023-10-13T03:17:02;15.50;99.90
66568;DHT22;53422;49.296;6.900;2023-10-13T03:19:32;15.50;99.90
66568;DHT22;53422;49.296;6.900;2023-10-13T03:22:07;15.40;99.90
66568;DHT22;53422;49.296;6.900;2023-10-13T03:24:38;15.50;99.90
66568;DHT22;53422;49.296;6.900;2023-10-13T03:27:10;15.40;99.90
66568;DHT22;53422;49.296;6.900;2023-10-13T03:29:42;15.40;99.90
66568;DHT22;53422;49.296;6.900;2023-10-13T03:32:13;15.50;99.90
66568;DHT22;53422;49.296;6.900;2023-10-13T03:34:45;15.50;99.90
66568;DHT22;53422;49.296;6.900;2023-10-13T03:37:19;15.50;99.90
66568;DHT22;53422;49.296;6.900;2023-10-13T03:40:12;15.50;99.90
66568;DHT22;53422;49.296;6.900;2023-10-13T03:42:51;15.50;99.90
66568;DHT22;53422;49.296;6.900;2023-10-13T03:45:28;15.50;99.90
66568;DHT22;53422;49.296;6.900;2023-10-13T03:47:57;15.50;99.90
66568;DHT22;53422;49.296;6.900;2023-10-13T03:50:23;15.50;99.90
66568;DHT22;53422;49.296;6.900;2023-10-13T03:52:59;15.40;99.90
66568;DHT22;53422;49.296;6.900;2023-10-13T03:55:26;15.40;99.90
66568;DHT22;53422;49.296;6.900;2023-10-13T03:57:55;15.40;99.90
66568;DHT22;53422;49.296;6.900;2023-10-13T04:00:22;15.40;99.90
66568;DHT22;53422;49.296;6.900;2023-10-13T04:02:53;15.40;99.90
66568;DHT22;53422;49.296;6.900;2023-10-13T04:05:28;15.40;99.90
66568;DHT22;53422;49.296;6.900;2023-10-13T04:08:26;15.40;99.90
66568;DHT22;53422;49.296;6.900;2023-10-13T04:10:56;15.40;99.90
66568;DHT22;53422;49.296;6.900;2023-10-13T04:13:22;15.40;99.90
66568;DHT22;53422;49.296;6.900;2023-10-13T04:16:26;15.30;99.90
66568;DHT22;53422;49.296;6.900;2023-10-13T04:18:51;15.30;99.90
66568;DHT22;53422;49.296;6.900;2023-10-13T04:21:23;15.30;99.90
66568;DHT22;53422;49.296;6.900;2023-10-13T04:24:09;15.30;99.90
66568;DHT22;53422;49.296;6.900;2023-10-13T04:26:51;15.30;99.90
66568;DHT22;53422;49.296;6.900;2023-10-13T04:29:35;15.40;99.90
66568;DHT22;53422;49.296;6.900;2023-10-13T04:32:17;15.40;99.90
66568;DHT22;53422;49.296;6.900;2023-10-13T04:34:59;15.40;99.90
66568;DHT22;53422;49.296;6.900;2023-10-13T04:37:39;15.40;99.90
66568;DHT22;53422;49.296;6.900;2023-10-13T04:40:26;15.40;99.90
66568;DHT22;53422;49.296;6.900;2023-10-13T04:42:53;15.40;99.90
66568;DHT22;53422;49.296;6.900;2023-10-13T04:45:22;15.40;99.90
66568;DHT22;53422;49.296;6.900;2023-10-13T04:47:58;15.40;99.90
66568;DHT22;53422;49.296;6.900;2023-10-13T04:50:44;15.40;99.90
66568;DHT22;53422;49.296;6.900;2023-10-13T04:53:17;15.40;99.90
66568;DHT22;53422;49.296;6.900;2023-10-13T04:55:58;15.40;99.90
66568;DHT22;53422;49.296;6.900;2023-10-13T04:58:56;15.40;99.90
66568;DHT22;53422;49.296;6.900;2023-10-13T05:01:41;15.40;99.90
66568;DHT22;53422;49.296;6.900;2023-10-13T05:04:22;15.50;99.90
66568;DHT22;53422;49.296;6.900;2023-10-13T05:07:03;15.50;99.90
66568;DHT22;53422;49.296;6.900;2023-10-13T05:09:51;15.50;99.90
66568;DHT22;53422;49.296;6.900;2023-10-13T05:12:35;15.50;99.90
66568;DHT22;53422;49.296;6.900;2023-10-13T05:15:19;15.50;99.90
66568;DHT22;53422;49.296;6.900;2023-10-13T05:18:04;15.50;99.90
66568;DHT22;53422;49.296;6.900;2023-10-13T05:20:48;15.50;99.90
66568;DHT22;53422;49.296;6.900;2023-10-13T05:23:32;15.50;99.90
66568;DHT22;53422;49.296;6.900;2023-10-13T05:26:16;15.50;99.90
66568;DHT22;53422;49.296;6.900;2023-10-13T05:29:01;15.50;99.90
66568;DHT22;53422;49.296;6.900;2023-10-13T05:31:45;15.50;99.90
66568;DHT22;53422;49.296;6.900;2023-10-13T05:34:29;15.50;99.90
66568;DHT22;53422;49.296;6.900;2023-10-13T05:37:13;15.50;99.90
66568;DHT22;53422;49.296;6.900;2023-10-13T05:39:57;15.50;99.90
66568;DHT22;53422;49.296;6.900;2023-10-13T05:42:41;15.50;99.90
66568;DHT22;53422;49.296;6.900;2023-10-13T05:45:25;15.50;99.90
66568;DHT22;53422;49.296;6.900;2023-10-13T05:48:23;15.50;99.90
66568;DHT22;53422;49.296;6.900;2023-10-13T05:51:07;15.50;99.90
66568;DHT22;53422;49.296;6.900;2023-10-13T05:53:51;15.50;99.90
66568;DHT22;53422;49.296;6.900;2023-10-13T05:56:35;15.50;99.90
66568;DHT22;53422;49.296;6.900;2023-10-13T05:59:19;15.50;99.90
66568;DHT22;53422;49.296;6.900;2023-10-13T06:02:05;15.50;99.90
66568;DHT22;53422;49.296;6.900;2023-10-13T06:04:49;15.50;99.90
66568;DHT22;53422;49.296;6.900;2023-10-13T06:07:33;15.50;99.90
66568;DHT22;53422;49.296;6.900;2023-10-13T06:10:17;15.50;99.90
66568;DHT22;53422;49.296;6.900;2023-10-13T06:13:02;15.50;99.90
66568;DHT22;53422;49.296;6.900;2023-10-13T06:15:46;15.50;99.90
66568;DHT22;53422;49.296;6.900;2023-10-13T06:18:30;15.50;99.90
66568;DHT22;53422;49.296;6.900;2023-10-13T06:21:14;15.60;99.90
66568;DHT22;53422;49.296;6.900;2023-10-13T06:23:58;15.60;99.90
66568;DHT22;53422;49.296;6.900;2023-10-13T06:26:42;15.60;99.90
66568;DHT22;53422;49.296;6.900;2023-10-13T06:29:26;15.60;99.90
66568;DHT22;53422;49.296;6.900;2023-10-13T06:31:52;15.60;99.90
66568;DHT22;53422;49.296;6.900;2023-10-13T06:34:17;15.70;99.90
66568;DHT22;53422;49.296;6.900;2023-10-13T06:36:49;15.70;99.90
66568;DHT22;53422;49.296;6.900;2023-10-13T06:39:19;15.70;99.90
66568;DHT22;53422;49.296;6.900;2023-10-13T06:42:01;15.60;99.90
66568;DHT22;53422;49.296;6.900;2023-10-13T06:44:28;15.60;99.90
66568;DHT22;53422;49.296;6.900;2023-10-13T06:46:58;15.70;99.90
66568;DHT22;53422;49.296;6.900;2023-10-13T06:49:24;15.70;99.90
66568;DHT22;53422;49.296;6.900;2023-10-13T06:51:49;15.80;99.90
66568;DHT22;53422;49.296;6.900;2023-10-13T06:54:15;15.80;99.90
66568;DHT22;53422;49.296;6.900;2023-10-13T06:56:49;15.80;99.90
66568;DHT22;53422;49.296;6.900;2023-10-13T06:59:18;15.80;99.90
66568;DHT22;53422;49.296;6.900;2023-10-13T07:01:43;15.80;99.90
66568;DHT22;53422;49.296;6.900;2023-10-13T07:04:10;15.90;99.90
66568;DHT22;53422;49.296;6.900;2023-10-13T07:06:43;15.90;99.90
66568;DHT22;53422;49.296;6.900;2023-10-13T07:09:18;15.90;99.90
66568;DHT22;53422;49.296;6.900;2023-10-13T07:12:03;15.90;99.90
66568;DHT22;53422;49.296;6.900;2023-10-13T07:14:32;15.90;99.90
66568;DHT22;53422;49.296;6.900;2023-10-13T07:17:04;15.90;99.90
66568;DHT22;53422;49.296;6.900;2023-10-13T07:19:31;15.90;99.90
66568;DHT22;53422;49.296;6.900;2023-10-13T07:22:01;16.00;99.90
66568;DHT22;53422;49.296;6.900;2023-10-13T07:24:46;16.00;99.90
66568;DHT22;53422;49.296;6.900;2023-10-13T07:27:19;15.90;99.90
66568;DHT22;53422;49.296;6.900;2023-10-13T07:29:55;16.00;99.90
66568;DHT22;53422;49.296;6.900;2023-10-13T07:32:23;16.00;99.90
66568;DHT22;53422;49.296;6.900;2023-10-13T07:34:55;16.00;99.90
66568;DHT22;53422;49.296;6.900;2023-10-13T07:37:22;16.00;99.90
66568;DHT22;53422;49.296;6.900;2023-10-13T07:39:54;16.10;99.90
66568;DHT22;53422;49.296;6.900;2023-10-13T07:42:26;16.10;99.90
66568;DHT22;53422;49.296;6.900;2023-10-13T07:45:05;16.10;99.90
66568;DHT22;53422;49.296;6.900;2023-10-13T07:47:31;16.20;99.90
66568;DHT22;53422;49.296;6.900;2023-10-13T07:49:59;16.20;99.90
66568;DHT22;53422;49.296;6.900;2023-10-13T07:52:24;16.20;99.90
66568;DHT22;53422;49.296;6.900;2023-10-13T07:55:01;16.20;99.90
66568;DHT22;53422;49.296;6.900;2023-10-13T07:57:45;16.20;99.90
66568;DHT22;53422;49.296;6.900;2023-10-13T08:00:21;16.20;99.90
66568;DHT22;53422;49.296;6.900;2023-10-13T08:03:05;16.20;99.90
66568;DHT22;53422;49.296;6.900;2023-10-13T08:05:57;16.30;99.90
66568;DHT22;53422;49.296;6.900;2023-10-13T08:08:26;16.30;99.90
66568;DHT22;53422;49.296;6.900;2023-10-13T08:11:01;16.30;99.90
66568;DHT22;53422;49.296;6.900;2023-10-13T08:13:35;16.30;99.90
66568;DHT22;53422;49.296;6.900;2023-10-13T08:16:04;16.40;99.90
66568;DHT22;53422;49.296;6.900;2023-10-13T08:18:49;16.40;99.90
66568;DHT22;53422;49.296;6.900;2023-10-13T08:21:19;16.60;99.90
66568;DHT22;53422;49.296;6.900;2023-10-13T08:23:51;16.70;99.90
66568;DHT22;53422;49.296;6.900;2023-10-13T08:26:24;16.80;99.90
66568;DHT22;53422;49.296;6.900;2023-10-13T08:29:03;16.90;99.90
66568;DHT22;53422;49.296;6.900;2023-10-13T08:31:47;16.90;99.90
66568;DHT22;53422;49.296;6.900;2023-10-13T08:34:33;17.00;99.90
66568;DHT22;53422;49.296;6.900;2023-10-13T08:37:08;17.10;99.90
66568;DHT22;53422;49.296;6.900;2023-10-13T08:39:55;17.20;99.90
66568;DHT22;53422;49.296;6.900;2023-10-13T08:42:39;17.10;99.90
66568;DHT22;53422;49.296;6.900;2023-10-13T08:45:12;17.10;99.90
66568;DHT22;53422;49.296;6.900;2023-10-13T08:47:55;17.20;99.90
66568;DHT22;53422;49.296;6.900;2023-10-13T08:50:34;17.30;99.90
66568;DHT22;53422;49.296;6.900;2023-10-13T08:55:57;17.40;99.90
66568;DHT22;53422;49.296;6.900;2023-10-13T08:58:44;17.40;99.90
66568;DHT22;53422;49.296;6.900;2023-10-13T09:01:20;17.50;99.90
66568;DHT22;53422;49.296;6.900;2023-10-13T09:04:25;17.50;99.90
66568;DHT22;53422;49.296;6.900;2023-10-13T09:07:04;17.50;99.90
66568;DHT22;53422;49.296;6.900;2023-10-13T09:09:51;17.60;99.90
66568;DHT22;53422;49.296;6.900;2023-10-13T09:12:28;17.70;99.90
66568;DHT22;53422;49.296;6.900;2023-10-13T09:15:00;17.70;99.90
66568;DHT22;53422;49.296;6.900;2023-10-13T09:17:51;17.70;99.90
66568;DHT22;53422;49.296;6.900;2023-10-13T09:20:29;17.80;99.90
66568;DHT22;53422;49.296;6.900;2023-10-13T09:23:15;17.80;99.90
66568;DHT22;53422;49.296;6.900;2023-10-13T09:25:50;17.90;99.90
66568;DHT22;53422;49.296;6.900;2023-10-13T09:28:23;17.90;99.90
66568;DHT22;53422;49.296;6.900;2023-10-13T09:30:54;17.90;99.90
66568;DHT22;53422;49.296;6.900;2023-10-13T09:33:25;17.90;99.90
66568;DHT22;53422;49.296;6.900;2023-10-13T09:35:55;18.00;99.90
66568;DHT22;53422;49.296;6.900;2023-10-13T09:38:27;18.20;99.90
66568;DHT22;53422;49.296;6.900;2023-10-13T09:40:53;18.20;99.90
66568;DHT22;53422;49.296;6.900;2023-10-13T09:43:23;18.10;99.90
66568;DHT22;53422;49.296;6.900;2023-10-13T09:45:50;18.20;99.90
66568;DHT22;53422;49.296;6.900;2023-10-13T09:48:36;18.20;99.90
66568;DHT22;53422;49.296;6.900;2023-10-13T09:51:12;18.20;99.90
66568;DHT22;53422;49.296;6.900;2023-10-13T09:53:38;18.30;99.90
66568;DHT22;53422;49.296;6.900;2023-10-13T09:56:25;18.30;99.90
66568;DHT22;53422;49.296;6.900;2023-10-13T09:59:02;18.40;99.90
66568;DHT22;53422;49.296;6.900;2023-10-13T10:01:38;18.40;99.90
66568;DHT22;53422;49.296;6.900;2023-10-13T10:04:07;18.60;99.90
66568;DHT22;53422;49.296;6.900;2023-10-13T10:06:57;18.60;99.90
66568;DHT22;53422;49.296;6.900;2023-10-13T10:09:41;18.60;99.90
66568;DHT22;53422;49.296;6.900;2023-10-13T10:15:34;18.80;99.90
66568;DHT22;53422;49.296;6.900;2023-10-13T10:18:01;18.90;99.90
66568;DHT22;53422;49.296;6.900;2023-10-13T10:20:32;19.00;99.90
66568;DHT22;53422;49.296;6.900;2023-10-13T10:23:08;19.00;99.90
66568;DHT22;53422;49.296;6.900;2023-10-13T10:25:47;19.00;99.90
66568;DHT22;53422;49.296;6.900;2023-10-13T10:28:13;19.00;99.90
66568;DHT22;53422;49.296;6.900;2023-10-13T10:30:41;19.10;99.90
66568;DHT22;53422;49.296;6.900;2023-10-13T10:33:08;19.40;99.90
66568;DHT22;53422;49.296;6.900;2023-10-13T10:35:46;19.50;99.90
66568;DHT22;53422;49.296;6.900;2023-10-13T10:43:18;19.50;99.90
66568;DHT22;53422;49.296;6.900;2023-10-13T10:45:47;19.60;99.90
66568;DHT22;53422;49.296;6.900;2023-10-13T10:48:16;19.80;99.90
66568;DHT22;53422;49.296;6.900;2023-10-13T10:50:54;19.80;99.90
66568;DHT22;53422;49.296;6.900;2023-10-13T10:53:23;19.80;99.90
66568;DHT22;53422;49.296;6.900;2023-10-13T10:56:04;19.80;99.90
66568;DHT22;53422;49.296;6.900;2023-10-13T10:58:34;19.80;99.90
66568;DHT22;53422;49.296;6.900;2023-10-13T11:01:15;19.90;99.90
66568;DHT22;53422;49.296;6.900;2023-10-13T11:04:00;20.60;99.90
66568;DHT22;53422;49.296;6.900;2023-10-13T11:07:00;21.00;99.90
66568;DHT22;53422;49.296;6.900;2023-10-13T11:09:32;21.10;99.90
66568;DHT22;53422;49.296;6.900;2023-10-13T11:12:12;21.10;99.90
66568;DHT22;53422;49.296;6.900;2023-10-13T11:15:02;21.30;99.90
66568;DHT22;53422;49.296;6.900;2023-10-13T11:17:32;21.50;99.90
66568;DHT22;53422;49.296;6.900;2023-10-13T11:20:12;21.50;99.90
66568;DHT22;53422;49.296;6.900;2023-10-13T11:22:45;21.60;99.90
66568;DHT22;53422;49.296;6.900;2023-10-13T11:25:32;21.70;99.90
66568;DHT22;53422;49.296;6.900;2023-10-13T11:28:13;21.70;99.90
66568;DHT22;53422;49.296;6.900;2023-10-13T11:30:46;21.80;99.90
66568;DHT22;53422;49.296;6.900;2023-10-13T11:33:18;21.90;99.90
66568;DHT22;53422;49.296;6.900;2023-10-13T11:35:49;21.80;99.90
66568;DHT22;53422;49.296;6.900;2023-10-13T11:38:39;21.90;99.90
66568;DHT22;53422;49.296;6.900;2023-10-13T11:41:13;21.80;99.40
66568;DHT22;53422;49.296;6.900;2023-10-13T11:46:13;21.90;99.80
66568;DHT22;53422;49.296;6.900;2023-10-13T11:48:42;21.90;99.80
66568;DHT22;53422;49.296;6.900;2023-10-13T11:51:14;22.00;99.90
66568;DHT22;53422;49.296;6.900;2023-10-13T11:53:49;22.00;97.50
66568;DHT22;53422;49.296;6.900;2023-10-13T11:56:21;22.00;95.00
66568;DHT22;53422;49.296;6.900;2023-10-13T11:58:47;22.00;95.20
66568;DHT22;53422;49.296;6.900;2023-10-13T12:01:16;22.10;95.00
66568;DHT22;53422;49.296;6.900;2023-10-13T12:03:49;22.10;96.10
66568;DHT22;53422;49.296;6.900;2023-10-13T12:06:34;22.20;96.50
66568;DHT22;53422;49.296;6.900;2023-10-13T12:09:04;22.30;92.90
66568;DHT22;53422;49.296;6.900;2023-10-13T12:11:42;22.20;92.50
66568;DHT22;53422;49.296;6.900;2023-10-13T12:14:09;22.30;92.30
66568;DHT22;53422;49.296;6.900;2023-10-13T12:16:58;22.30;90.70
66568;DHT22;53422;49.296;6.900;2023-10-13T12:19:30;22.30;91.00
66568;DHT22;53422;49.296;6.900;2023-10-13T12:21:57;22.20;89.90
66568;DHT22;53422;49.296;6.900;2023-10-13T12:24:28;22.30;91.10
66568;DHT22;53422;49.296;6.900;2023-10-13T12:27:06;22.30;89.50
66568;DHT22;53422;49.296;6.900;2023-10-13T12:29:48;22.30;90.10
66568;DHT22;53422;49.296;6.900;2023-10-13T12:32:14;22.40;90.40
66568;DHT22;53422;49.296;6.900;2023-10-13T12:34:46;22.20;92.40
66568;DHT22;53422;49.296;6.900;2023-10-13T12:37:33;22.30;90.80
66568;DHT22;53422;49.296;6.900;2023-10-13T12:40:02;22.30;91.40
66568;DHT22;53422;49.296;6.900;2023-10-13T12:42:46;22.30;91.80
66568;DHT22;53422;49.296;6.900;2023-10-13T12:45:41;22.30;92.90
66568;DHT22;53422;49.296;6.900;2023-10-13T12:48:26;22.30;92.20
66568;DHT22;53422;49.296;6.900;2023-10-13T12:51:10;22.30;93.40
66568;DHT22;53422;49.296;6.900;2023-10-13T12:53:55;22.30;92.90
66568;DHT22;53422;49.296;6.900;2023-10-13T12:56:21;22.30;92.60
66568;DHT22;53422;49.296;6.900;2023-10-13T12:58:54;22.40;92.00
66568;DHT22;53422;49.296;6.900;2023-10-13T13:01:20;22.40;92.00
66568;DHT22;53422;49.296;6.900;2023-10-13T13:03:47;22.40;92.00
66568;DHT22;53422;49.296;6.900;2023-10-13T13:06:18;22.30;92.60
66568;DHT22;53422;49.296;6.900;2023-10-13T13:08:59;22.40;92.20
66568;DHT22;53422;49.296;6.900;2023-10-13T13:11:27;22.40;91.10
66568;DHT22;53422;49.296;6.900;2023-10-13T13:13:56;22.50;91.10
66568;DHT22;53422;49.296;6.900;2023-10-13T13:16:22;22.50;88.90
66568;DHT22;53422;49.296;6.900;2023-10-13T13:18:55;22.60;90.60
66568;DHT22;53422;49.296;6.900;2023-10-13T13:21:21;22.60;90.00
66568;DHT22;53422;49.296;6.900;2023-10-13T13:23:50;22.70;89.10
66568;DHT22;53422;49.296;6.900;2023-10-13T13:26:16;22.90;86.60
66568;DHT22;53422;49.296;6.900;2023-10-13T13:28:43;23.10;86.50
66568;DHT22;53422;49.296;6.900;2023-10-13T13:31:09;23.10;86.10
66568;DHT22;53422;49.296;6.900;2023-10-13T13:33:38;23.10;83.90
66568;DHT22;53422;49.296;6.900;2023-10-13T13:36:07;23.40;83.50
66568;DHT22;53422;49.296;6.900;2023-10-13T13:38:33;23.50;83.70
66568;DHT22;53422;49.296;6.900;2023-10-13T13:41:01;23.80;82.40
66568;DHT22;53422;49.296;6.900;2023-10-13T13:43:29;23.80;79.30
66568;DHT22;53422;49.296;6.900;2023-10-13T13:46:07;23.90;78.60
66568;DHT22;53422;49.296;6.900;2023-10-13T13:48:39;24.10;77.00
66568;DHT22;53422;49.296;6.900;2023-10-13T13:51:07;23.90;78.60
66568;DHT22;53422;49.296;6.900;2023-10-13T13:53:43;23.90;77.90
66568;DHT22;53422;49.296;6.900;2023-10-13T13:56:14;23.90;74.20
66568;DHT22;53422;49.296;6.900;2023-10-13T13:58:43;23.90;71.30
66568;DHT22;53422;49.296;6.900;2023-10-13T14:01:08;24.00;73.30
66568;DHT22;53422;49.296;6.900;2023-10-13T14:03:41;23.90;73.70
66568;DHT22;53422;49.296;6.900;2023-10-13T14:06:20;23.90;71.60
66568;DHT22;53422;49.296;6.900;2023-10-13T14:08:51;24.00;70.70
66568;DHT22;53422;49.296;6.900;2023-10-13T14:11:21;23.90;71.50
66568;DHT22;53422;49.296;6.900;2023-10-13T14:14:09;23.90;73.80
66568;DHT22;53422;49.296;6.900;2023-10-13T14:16:46;23.90;69.30
66568;DHT22;53422;49.296;6.900;2023-10-13T14:19:15;23.90;71.90
66568;DHT22;53422;49.296;6.900;2023-10-13T14:21:52;23.80;70.80
66568;DHT22;53422;49.296;6.900;2023-10-13T14:24:19;23.70;71.60
66568;DHT22;53422;49.296;6.900;2023-10-13T14:27:02;23.70;70.10
66568;DHT22;53422;49.296;6.900;2023-10-13T14:29:35;23.60;70.40
66568;DHT22;53422;49.296;6.900;2023-10-13T14:32:07;23.50;71.20
66568;DHT22;53422;49.296;6.900;2023-10-13T14:34:36;23.50;71.90
66568;DHT22;53422;49.296;6.900;2023-10-13T14:37:01;23.50;72.20
66568;DHT22;53422;49.296;6.900;2023-10-13T14:39:30;23.40;72.40
66568;DHT22;53422;49.296;6.900;2023-10-13T14:41:56;23.40;72.20
66568;DHT22;53422;49.296;6.900;2023-10-13T14:44:21;23.30;72.20
66568;DHT22;53422;49.296;6.900;2023-10-13T14:46:53;23.40;75.00
66568;DHT22;53422;49.296;6.900;2023-10-13T14:49:21;23.60;68.60
66568;DHT22;53422;49.296;6.900;2023-10-13T14:51:47;23.50;68.50
66568;DHT22;53422;49.296;6.900;2023-10-13T14:54:15;23.50;67.90
66568;DHT22;53422;49.296;6.900;2023-10-13T14:56:40;23.40;67.10
66568;DHT22;53422;49.296;6.900;2023-10-13T14:59:09;23.50;68.80
66568;DHT22;53422;49.296;6.900;2023-10-13T15:01:42;23.30;68.80
66568;DHT22;53422;49.296;6.900;2023-10-13T15:04:11;23.30;67.70
66568;DHT22;53422;49.296;6.900;2023-10-13T15:06:36;23.40;69.10
66568;DHT22;53422;49.296;6.900;2023-10-13T15:09:02;23.40;67.40
66568;DHT22;53422;49.296;6.900;2023-10-13T15:11:29;23.40;67.10
66568;DHT22;53422;49.296;6.900;2023-10-13T15:14:04;23.40;68.00
66568;DHT22;53422;49.296;6.900;2023-10-13T15:16:33;23.20;67.90
66568;DHT22;53422;49.296;6.900;2023-10-13T15:18:59;23.20;66.80
66568;DHT22;53422;49.296;6.900;2023-10-13T15:21:30;23.20;66.40
66568;DHT22;53422;49.296;6.900;2023-10-13T15:24:05;23.30;65.90
66568;DHT22;53422;49.296;6.900;2023-10-13T15:26:40;23.20;66.40
66568;DHT22;53422;49.296;6.900;2023-10-13T15:29:13;23.10;66.40
66568;DHT22;53422;49.296;6.900;2023-10-13T15:31:42;23.20;65.30
66568;DHT22;53422;49.296;6.900;2023-10-13T15:34:19;23.10;65.70
66568;DHT22;53422;49.296;6.900;2023-10-13T15:36:45;23.20;63.90
66568;DHT22;53422;49.296;6.900;2023-10-13T15:39:11;23.10;64.70
66568;DHT22;53422;49.296;6.900;2023-10-13T15:41:41;23.10;63.80
66568;DHT22;53422;49.296;6.900;2023-10-13T15:44:13;23.10;63.20
66568;DHT22;53422;49.296;6.900;2023-10-13T15:46:39;23.00;63.90
66568;DHT22;53422;49.296;6.900;2023-10-13T15:49:05;23.00;64.20
66568;DHT22;53422;49.296;6.900;2023-10-13T15:51:32;23.00;63.20
66568;DHT22;53422;49.296;6.900;2023-10-13T15:53:59;22.90;64.50
66568;DHT22;53422;49.296;6.900;2023-10-13T15:56:28;22.80;64.80
66568;DHT22;53422;49.296;6.900;2023-10-13T15:59:00;22.80;63.00
66568;DHT22;53422;49.296;6.900;2023-10-13T16:01:32;22.80;63.50
66568;DHT22;53422;49.296;6.900;2023-10-13T16:03:59;22.70;63.90
66568;DHT22;53422;49.296;6.900;2023-10-13T16:06:25;22.70;62.90
66568;DHT22;53422;49.296;6.900;2023-10-13T16:08:51;22.60;63.50
66568;DHT22;53422;49.296;6.900;2023-10-13T16:11:17;22.70;60.90
66568;DHT22;53422;49.296;6.900;2023-10-13T16:13:44;22.70;60.60
66568;DHT22;53422;49.296;6.900;2023-10-13T16:16:20;22.60;61.70
66568;DHT22;53422;49.296;6.900;2023-10-13T16:18:49;22.50;63.10
66568;DHT22;53422;49.296;6.900;2023-10-13T16:21:15;22.40;62.80
66568;DHT22;53422;49.296;6.900;2023-10-13T16:23:42;22.30;66.20
66568;DHT22;53422;49.296;6.900;2023-10-13T16:26:11;22.10;68.00